Time;durP1;ratioP1;P1;durP2;ratioP2;P2;SDS_P1;SDS_P2;PMS_P1;PMS_P2;Temp;Humidity;BMP_temperature;BMP_pressure;BME280_temperature;BME280_humidity;BME280_pressure;Samples;Min_cycle;Max_cycle;Signal;HPM_P1;HPM_P2
2023/09/30 00:00:16;;;;;;;2.80;2.40;;;16.60;78.70;;;;;;6189312;28;20232;-80
2023/09/30 00:03:19;;;;;;;3.70;2.77;;;16.60;78.50;;;;;;6181634;28;20236;-82
2023/09/30 00:06:23;;;;;;;3.13;2.93;;;16.50;77.70;;;;;;6199457;28;20246;-80
2023/09/30 00:09:26;;;;;;;2.40;2.20;;;16.50;77.10;;;;;;6192039;28;20232;-77
2023/09/30 00:12:31;;;;;;;3.50;2.87;;;16.50;77.30;;;;;;6189769;28;20236;-81
2023/09/30 00:15:34;;;;;;;3.10;2.80;;;16.50;75.60;;;;;;6190407;28;20251;-81
2023/09/30 00:18:37;;;;;;;3.77;2.90;;;16.50;74.80;;;;;;6190771;28;20311;-81
2023/09/30 00:21:40;;;;;;;4.67;2.97;;;16.40;74.30;;;;;;6185163;28;20235;-79
2023/09/30 00:24:43;;;;;;;5.60;3.23;;;16.40;74.00;;;;;;6190913;28;20830;-82
2023/09/30 00:27:49;;;;;;;4.67;3.10;;;16.40;73.20;;;;;;6189891;28;20243;-80
2023/09/30 00:30:54;;;;;;;7.30;3.50;;;16.30;72.50;;;;;;6186834;28;20662;-79
2023/09/30 00:33:57;;;;;;;8.77;4.00;;;16.20;72.10;;;;;;6189021;28;20239;-79
2023/09/30 00:37:00;;;;;;;5.80;3.57;;;16.10;71.30;;;;;;6194757;28;20375;-80
2023/09/30 00:40:04;;;;;;;5.73;3.43;;;16.00;71.20;;;;;;6186043;28;20270;-81
2023/09/30 00:43:19;;;;;;;4.20;3.47;;;16.00;71.40;;;;;;6180990;28;20235;-81
2023/09/30 00:46:28;;;;;;;9.23;3.70;;;15.90;71.70;;;;;;6189752;28;20251;-81
2023/09/30 00:49:31;;;;;;;4.97;3.33;;;15.80;71.80;;;;;;6185417;28;20843;-80
2023/09/30 00:52:36;;;;;;;5.93;3.70;;;15.80;71.90;;;;;;6186052;28;20329;-79
2023/09/30 00:55:40;;;;;;;8.07;3.60;;;15.70;71.90;;;;;;6181417;28;20251;-79
2023/09/30 00:58:45;;;;;;;5.60;3.67;;;15.70;71.80;;;;;;6189014;28;20325;-83
2023/09/30 01:01:49;;;;;;;7.53;3.73;;;15.60;72.20;;;;;;6182258;28;20232;-81
2023/09/30 01:04:53;;;;;;;6.70;3.63;;;15.50;72.00;;;;;;6186148;28;20247;-80
2023/09/30 01:07:56;;;;;;;7.03;3.67;;;15.40;71.90;;;;;;6188150;28;20298;-82
2023/09/30 01:11:00;;;;;;;7.13;3.80;;;15.40;71.80;;;;;;6188460;28;20243;-81
2023/09/30 01:14:05;;;;;;;8.57;4.23;;;15.30;71.90;;;;;;6187094;28;20252;-77
2023/09/30 01:17:09;;;;;;;5.50;3.70;;;15.30;72.10;;;;;;6185235;28;20286;-80
2023/09/30 01:20:22;;;;;;;5.03;3.60;;;15.20;72.30;;;;;;6187053;28;20235;-79
2023/09/30 01:23:27;;;;;;;6.50;3.90;;;15.10;72.60;;;;;;6188410;28;20307;-81
2023/09/30 01:26:31;;;;;;;6.43;3.80;;;15.00;73.20;;;;;;6187269;28;20312;-82
2023/09/30 01:29:36;;;;;;;3.77;3.40;;;15.00;73.40;;;;;;6189388;28;20262;-81
2023/09/30 01:32:39;;;;;;;5.50;3.63;;;14.90;73.60;;;;;;6178707;28;20272;-81
2023/09/30 01:35:42;;;;;;;6.07;3.80;;;14.90;73.90;;;;;;6180664;28;20244;-78
2023/09/30 01:38:47;;;;;;;5.97;3.43;;;14.90;73.70;;;;;;6186028;28;20235;-80
2023/09/30 01:41:50;;;;;;;6.97;4.00;;;14.80;73.90;;;;;;6183793;28;20276;-78
2023/09/30 01:44:54;;;;;;;9.23;4.20;;;14.70;74.10;;;;;;6188663;28;20633;-79
2023/09/30 01:47:57;;;;;;;6.17;3.93;;;14.70;73.90;;;;;;6189467;28;20260;-79
2023/09/30 01:51:00;;;;;;;11.43;4.20;;;14.60;73.90;;;;;;6188647;28;20231;-79
2023/09/30 01:54:07;;;;;;;6.50;4.23;;;14.60;73.80;;;;;;6188043;28;20243;-80
2023/09/30 01:57:10;;;;;;;10.43;4.30;;;14.50;73.90;;;;;;6187248;28;20251;-82
2023/09/30 02:00:14;;;;;;;7.07;4.17;;;14.50;73.90;;;;;;6186561;28;20228;-79
2023/09/30 02:03:17;;;;;;;9.80;4.33;;;14.40;74.00;;;;;;6188579;28;20627;-80
2023/09/30 02:06:20;;;;;;;8.67;4.40;;;14.40;74.50;;;;;;6187864;28;20852;-78
2023/09/30 02:09:25;;;;;;;12.43;4.67;;;14.30;74.60;;;;;;6188233;28;20711;-80
2023/09/30 02:12:28;;;;;;;16.23;5.17;;;14.30;74.70;;;;;;6189300;28;20236;-81
2023/09/30 02:15:31;;;;;;;7.80;4.50;;;14.30;74.80;;;;;;6188037;28;20305;-79
2023/09/30 02:18:35;;;;;;;10.13;4.67;;;14.20;75.00;;;;;;6188162;28;20295;-81
2023/09/30 02:21:38;;;;;;;8.07;4.30;;;14.20;75.00;;;;;;6187477;28;20232;-82
2023/09/30 02:24:43;;;;;;;15.87;4.80;;;14.20;75.00;;;;;;6185080;28;20842;-79
2023/09/30 02:27:46;;;;;;;8.83;4.53;;;14.20;75.20;;;;;;6193201;28;20318;-81
2023/09/30 02:30:50;;;;;;;8.70;4.67;;;14.10;75.20;;;;;;6185054;28;20693;-82
2023/09/30 02:33:53;;;;;;;7.57;3.97;;;14.00;75.40;;;;;;6192319;28;20239;-81
2023/09/30 02:36:56;;;;;;;10.10;4.67;;;14.00;75.40;;;;;;6185646;28;20763;-79
2023/09/30 02:40:01;;;;;;;12.93;4.93;;;14.00;75.50;;;;;;6192460;28;20375;-77
2023/09/30 02:43:05;;;;;;;8.93;4.63;;;13.90;75.90;;;;;;6186473;28;20273;-81
2023/09/30 02:46:08;;;;;;;8.30;4.60;;;13.90;76.10;;;;;;6192579;28;20894;-79
2023/09/30 02:49:12;;;;;;;11.03;5.03;;;13.90;76.40;;;;;;6193190;28;20274;-80
2023/09/30 02:52:15;;;;;;;9.03;4.40;;;13.90;76.60;;;;;;6188792;28;20239;-80
2023/09/30 02:55:19;;;;;;;10.83;5.17;;;13.90;76.70;;;;;;6191152;28;20371;-81
2023/09/30 02:58:23;;;;;;;7.93;5.27;;;13.90;77.20;;;;;;6192973;28;20758;-79
2023/09/30 03:01:27;;;;;;;12.40;5.30;;;13.90;77.20;;;;;;6192253;28;20334;-80
2023/09/30 03:04:30;;;;;;;8.07;4.90;;;13.80;77.60;;;;;;6188544;28;20242;-79
2023/09/30 03:07:34;;;;;;;9.43;5.13;;;13.80;77.70;;;;;;6192034;28;20739;-82
2023/09/30 03:10:40;;;;;;;9.50;4.97;;;13.80;77.80;;;;;;6190826;28;20251;-79
2023/09/30 03:13:43;;;;;;;11.13;4.97;;;13.70;77.80;;;;;;6185027;28;20248;-79
2023/09/30 03:16:46;;;;;;;12.00;5.50;;;13.70;78.00;;;;;;6192404;28;20311;-82
2023/09/30 03:19:50;;;;;;;7.07;4.93;;;13.70;78.20;;;;;;6193016;28;20240;-78
2023/09/30 03:22:54;;;;;;;8.20;4.73;;;13.70;78.20;;;;;;6191125;28;20799;-80
2023/09/30 03:25:59;;;;;;;10.07;4.87;;;13.70;78.30;;;;;;6183011;28;20228;-81
2023/09/30 03:29:03;;;;;;;8.87;4.90;;;13.60;78.30;;;;;;6191345;28;20732;-81
2023/09/30 03:32:06;;;;;;;14.83;5.33;;;13.60;78.30;;;;;;6178137;28;20303;-79
2023/09/30 03:35:14;;;;;;;10.97;5.43;;;13.60;78.60;;;;;;6182686;28;20323;-80
2023/09/30 03:38:20;;;;;;;8.63;4.83;;;13.60;78.50;;;;;;6190964;28;20228;-82
2023/09/30 03:41:24;;;;;;;15.10;5.67;;;13.60;78.30;;;;;;6190503;28;20228;-82
2023/09/30 03:44:29;;;;;;;9.67;4.83;;;13.50;78.40;;;;;;6190119;28;20293;-81
2023/09/30 03:47:32;;;;;;;10.50;5.50;;;13.50;78.60;;;;;;6189885;28;20259;-80
2023/09/30 03:50:36;;;;;;;15.10;5.23;;;13.50;78.60;;;;;;6189178;28;20235;-80
2023/09/30 03:53:39;;;;;;;13.90;5.53;;;13.50;78.70;;;;;;6186649;28;20889;-83
2023/09/30 03:56:43;;;;;;;15.73;5.50;;;13.50;78.80;;;;;;6189092;28;20339;-82
2023/09/30 03:59:47;;;;;;;10.40;5.10;;;13.40;78.90;;;;;;6187897;28;20267;-79
2023/09/30 04:02:52;;;;;;;12.50;5.40;;;13.40;79.00;;;;;;6187428;28;20767;-81
2023/09/30 04:05:56;;;;;;;8.33;4.87;;;13.30;79.00;;;;;;6176008;28;20371;-80
2023/09/30 04:08:59;;;;;;;12.70;5.70;;;13.30;79.00;;;;;;6184361;28;20247;-81
2023/09/30 04:12:04;;;;;;;9.60;4.83;;;13.30;79.30;;;;;;6189061;28;20847;-79
2023/09/30 04:15:11;;;;;;;13.87;5.87;;;13.20;79.30;;;;;;6189166;28;20327;-80
2023/09/30 04:18:15;;;;;;;14.43;5.63;;;13.20;79.30;;;;;;6184919;28;20331;-81
2023/09/30 04:21:18;;;;;;;13.33;5.63;;;13.20;79.30;;;;;;6184166;28;20429;-83
2023/09/30 04:24:22;;;;;;;9.10;5.57;;;13.20;79.40;;;;;;6187226;28;20762;-80
2023/09/30 04:27:27;;;;;;;13.03;5.17;;;13.10;79.50;;;;;;6182179;28;20227;-82
2023/09/30 04:30:32;;;;;;;14.17;6.10;;;13.10;79.70;;;;;;6188894;28;20270;-83
2023/09/30 04:33:36;;;;;;;11.07;5.20;;;13.10;79.80;;;;;;6182667;28;20871;-81
2023/09/30 04:36:39;;;;;;;10.83;5.17;;;13.00;79.90;;;;;;6176162;28;20740;-83
2023/09/30 04:39:43;;;;;;;12.97;5.53;;;13.00;80.00;;;;;;6188264;28;20961;-81
2023/09/30 04:42:48;;;;;;;13.33;5.70;;;13.00;80.00;;;;;;6189846;28;20244;-82
2023/09/30 04:45:53;;;;;;;9.00;4.67;;;13.00;80.10;;;;;;6186241;28;20240;-82
2023/09/30 04:48:56;;;;;;;11.70;5.07;;;12.90;79.90;;;;;;6189530;28;20722;-82
2023/09/30 04:51:59;;;;;;;14.30;5.17;;;12.90;80.10;;;;;;6187007;28;20351;-83
2023/09/30 04:55:04;;;;;;;13.50;5.83;;;12.90;80.10;;;;;;6186792;28;20243;-81
2023/09/30 04:58:08;;;;;;;12.60;5.50;;;12.90;80.00;;;;;;6179938;28;20236;-83
2023/09/30 05:01:12;;;;;;;12.37;5.20;;;12.80;80.20;;;;;;6188842;28;20242;-81
2023/09/30 05:04:15;;;;;;;11.63;5.63;;;12.90;80.00;;;;;;6189528;28;20239;-81
2023/09/30 05:07:18;;;;;;;13.07;5.50;;;12.80;80.20;;;;;;6188398;28;20625;-81
2023/09/30 05:10:22;;;;;;;12.90;5.47;;;12.80;80.30;;;;;;6189073;28;20236;-81
2023/09/30 05:13:27;;;;;;;13.23;5.67;;;12.80;80.30;;;;;;6188436;28;20239;-83
2023/09/30 05:16:30;;;;;;;9.33;4.77;;;12.70;80.50;;;;;;6186235;28;20316;-81
2023/09/30 05:19:33;;;;;;;17.10;5.80;;;12.70;80.50;;;;;;6188134;28;20444;-80
2023/09/30 05:22:36;;;;;;;14.93;6.27;;;12.70;80.50;;;;;;6187492;28;20646;-81
2023/09/30 05:25:40;;;;;;;13.33;5.97;;;12.70;80.50;;;;;;6186978;28;20247;-83
2023/09/30 05:28:44;;;;;;;10.80;5.33;;;12.70;80.40;;;;;;6184315;28;20370;-82
2023/09/30 05:31:50;;;;;;;21.20;6.17;;;12.80;80.20;;;;;;6188669;28;20327;-80
2023/09/30 05:34:54;;;;;;;10.77;5.27;;;12.80;80.30;;;;;;6186734;28;20236;-83
2023/09/30 05:37:57;;;;;;;15.87;5.93;;;12.70;80.30;;;;;;6187623;28;20486;-82
2023/09/30 05:41:01;;;;;;;11.67;5.20;;;12.70;80.30;;;;;;6180879;28;20676;-81
2023/09/30 05:44:07;;;;;;;11.87;5.80;;;12.80;80.30;;;;;;6187337;28;20251;-81
2023/09/30 05:47:11;;;;;;;10.67;5.37;;;12.80;80.30;;;;;;6193406;28;20779;-80
2023/09/30 05:50:16;;;;;;;19.17;6.33;;;12.80;80.20;;;;;;6180139;28;20239;-81
2023/09/30 05:53:20;;;;;;;14.30;5.53;;;12.90;80.00;;;;;;6189697;28;20250;-83
2023/09/30 05:56:23;;;;;;;13.03;5.57;;;13.00;79.70;;;;;;6185071;28;20239;-80
2023/09/30 05:59:28;;;;;;;15.60;5.73;;;13.10;79.70;;;;;;6178709;28;20228;-83
2023/09/30 06:02:31;;;;;;;15.10;5.07;;;13.10;79.10;;;;;;6190940;28;20235;-82
2023/09/30 06:05:35;;;;;;;13.00;5.27;;;13.30;79.00;;;;;;6192990;28;20243;-83
2023/09/30 06:08:38;;;;;;;9.20;5.33;;;13.30;78.70;;;;;;6194104;28;20295;-82
2023/09/30 06:11:41;;;;;;;10.10;5.20;;;13.40;78.40;;;;;;6187826;28;20263;-81
2023/09/30 06:14:46;;;;;;;14.00;4.57;;;13.40;78.20;;;;;;6191330;28;20936;-83
2023/09/30 06:17:50;;;;;;;9.87;5.07;;;13.50;78.20;;;;;;6193790;28;20305;-82
2023/09/30 06:20:53;;;;;;;12.17;5.20;;;13.60;77.60;;;;;;6192953;28;20240;-83
2023/09/30 06:23:57;;;;;;;11.57;5.63;;;13.70;77.40;;;;;;6191654;28;20327;-83
2023/09/30 06:27:00;;;;;;;11.60;5.27;;;13.80;77.10;;;;;;6180317;28;20262;-85
2023/09/30 06:30:05;;;;;;;8.70;5.03;;;13.80;76.70;;;;;;6189131;28;20885;-82
2023/09/30 06:33:11;;;;;;;18.57;6.10;;;13.70;77.00;;;;;;6190290;28;20270;-82
2023/09/30 06:36:15;;;;;;;10.63;4.80;;;13.70;77.00;;;;;;6191257;28;20744;-81
2023/09/30 06:39:18;;;;;;;10.33;5.50;;;13.70;77.00;;;;;;6193476;28;20228;-84
2023/09/30 06:42:21;;;;;;;13.93;5.50;;;13.70;76.80;;;;;;6193489;28;20235;-84
2023/09/30 06:45:26;;;;;;;11.77;4.77;;;13.70;76.90;;;;;;6189112;28;20250;-82
2023/09/30 06:48:34;;;;;;;12.70;5.40;;;13.70;76.80;;;;;;6191682;28;20239;-81
2023/09/30 06:51:39;;;;;;;9.97;5.50;;;13.70;76.60;;;;;;6192306;28;20232;-81
2023/09/30 06:54:42;;;;;;;10.93;4.83;;;13.80;76.50;;;;;;6190935;28;20430;-81
2023/09/30 06:57:47;;;;;;;15.90;5.20;;;13.90;76.30;;;;;;6190682;28;20247;-83
2023/09/30 07:00:53;;;;;;;13.73;5.00;;;14.00;76.00;;;;;;6183108;28;20255;-83
2023/09/30 07:03:57;;;;;;;9.20;4.70;;;14.10;75.70;;;;;;6193173;28;20293;-83
2023/09/30 07:07:00;;;;;;;16.33;5.20;;;14.20;75.50;;;;;;6190745;28;20316;-82
2023/09/30 07:10:04;;;;;;;12.47;5.53;;;14.20;75.10;;;;;;6189495;28;20315;-81
2023/09/30 07:13:07;;;;;;;9.07;4.67;;;14.30;74.90;;;;;;6187474;28;20251;-82
2023/09/30 07:16:11;;;;;;;14.37;4.77;;;14.40;74.50;;;;;;6191321;28;20266;-80
2023/09/30 07:19:15;;;;;;;14.57;6.13;;;14.40;74.40;;;;;;6191953;28;20248;-81
2023/09/30 07:22:18;;;;;;;15.33;5.20;;;14.50;73.90;;;;;;6186911;28;20239;-79
2023/09/30 07:25:37;;;;;;;10.60;4.80;;;14.60;73.90;;;;;;6190207;28;20744;-82
2023/09/30 07:28:40;;;;;;;15.50;5.57;;;14.70;73.30;;;;;;6191244;28;20382;-81
2023/09/30 07:31:44;;;;;;;15.23;5.40;;;14.80;73.50;;;;;;6196064;28;20727;-81
2023/09/30 07:34:47;;;;;;;8.80;5.00;;;14.80;73.00;;;;;;6190305;28;20267;-82
2023/09/30 07:37:54;;;;;;;10.47;5.30;;;14.90;73.30;;;;;;6191611;28;20246;-82
2023/09/30 07:40:57;;;;;;;10.60;5.03;;;14.80;73.00;;;;;;6192123;28;20276;-81
2023/09/30 07:44:00;;;;;;;10.60;5.07;;;15.00;73.40;;;;;;6191488;28;20236;-81
2023/09/30 07:47:06;;;;;;;6.27;4.37;;;15.20;72.70;;;;;;6187237;28;20292;-80
2023/09/30 07:50:12;;;;;;;12.27;4.83;;;15.00;72.70;;;;;;6189880;28;20243;-82
2023/09/30 07:53:15;;;;;;;9.13;5.13;;;15.00;72.50;;;;;;6190173;28;20250;-81
2023/09/30 07:56:18;;;;;;;11.97;5.33;;;15.20;72.40;;;;;;6189625;28;20232;-81
2023/09/30 07:59:21;;;;;;;13.13;4.70;;;15.20;72.00;;;;;;6186931;28;20774;-83
2023/09/30 08:02:32;;;;;;;12.97;5.93;;;15.20;72.00;;;;;;6184041;28;20243;-80
2023/09/30 08:05:36;;;;;;;13.00;5.40;;;15.10;72.20;;;;;;6184892;28;20816;-79
2023/09/30 08:08:40;;;;;;;11.27;5.10;;;15.00;72.20;;;;;;6182000;28;20246;-83
2023/09/30 08:11:43;;;;;;;7.93;4.50;;;15.00;72.30;;;;;;6188629;28;20266;-81
2023/09/30 08:14:46;;;;;;;12.23;4.70;;;15.10;72.50;;;;;;6186591;28;20240;-82
2023/09/30 08:17:51;;;;;;;9.97;4.37;;;15.20;72.20;;;;;;6171295;28;20239;-81
2023/09/30 08:20:54;;;;;;;9.63;5.00;;;15.00;72.80;;;;;;6185235;28;20300;-82
2023/09/30 08:23:58;;;;;;;9.40;4.97;;;15.20;72.40;;;;;;6179570;28;20240;-80
2023/09/30 08:27:02;;;;;;;10.27;4.63;;;15.20;72.30;;;;;;6183956;28;20252;-80
2023/09/30 08:30:06;;;;;;;8.23;4.30;;;15.40;72.00;;;;;;6183900;28;20313;-84
2023/09/30 08:33:11;;;;;;;9.07;4.50;;;15.50;71.50;;;;;;6186461;28;20251;-80
2023/09/30 08:36:14;;;;;;;8.07;4.80;;;15.70;71.20;;;;;;6187584;28;20289;-79
2023/09/30 08:39:17;;;;;;;11.90;4.50;;;16.00;70.60;;;;;;6193546;28;20313;-79
2023/09/30 08:42:24;;;;;;;10.93;4.90;;;16.00;70.20;;;;;;6188703;28;20251;-78
2023/09/30 08:45:30;;;;;;;9.60;4.47;;;16.20;69.50;;;;;;6187711;28;20236;-81
2023/09/30 08:48:35;;;;;;;15.43;5.10;;;16.20;69.50;;;;;;6185747;28;20231;-79
2023/09/30 08:51:39;;;;;;;10.03;4.77;;;16.30;68.80;;;;;;6183629;28;20236;-79
2023/09/30 08:54:42;;;;;;;9.33;4.93;;;16.40;69.30;;;;;;6188664;28;20322;-78
2023/09/30 08:57:46;;;;;;;14.37;4.57;;;16.40;68.90;;;;;;6187707;28;20244;-80
2023/09/30 09:00:50;;;;;;;12.80;4.50;;;16.30;69.30;;;;;;6189308;28;20232;-82
2023/09/30 09:03:55;;;;;;;16.27;4.33;;;16.30;69.10;;;;;;6187050;28;20239;-81
2023/09/30 09:06:59;;;;;;;10.97;4.97;;;16.10;69.20;;;;;;6187132;28;20879;-83
2023/09/30 09:10:08;;;;;;;5.20;4.03;;;16.10;69.30;;;;;;6180616;28;20688;-78
2023/09/30 09:13:11;;;;;;;9.00;4.57;;;16.20;69.80;;;;;;6187067;28;20326;-78
2023/09/30 09:16:15;;;;;;;9.30;4.43;;;16.40;68.90;;;;;;6179782;28;20310;-80
2023/09/30 09:19:21;;;;;;;7.90;4.33;;;16.40;68.60;;;;;;6191880;28;20237;-79
2023/09/30 09:22:24;;;;;;;9.87;4.23;;;16.50;68.40;;;;;;6190320;28;20299;-80
2023/09/30 09:25:27;;;;;;;8.63;3.93;;;16.50;68.40;;;;;;6189520;28;20291;-80
2023/09/30 09:28:36;;;;;;;15.37;3.97;;;16.80;67.60;;;;;;6188584;28;20378;-80
2023/09/30 09:31:39;;;;;;;7.47;4.10;;;16.90;67.50;;;;;;6190295;28;20268;-79
2023/09/30 09:34:45;;;;;;;7.67;4.23;;;17.00;66.80;;;;;;6184599;28;20228;-81
2023/09/30 09:37:56;;;;;;;12.63;4.30;;;17.10;66.70;;;;;;6186581;28;20236;-79
2023/09/30 09:41:01;;;;;;;10.90;4.30;;;17.20;66.80;;;;;;6183330;28;20391;-80
2023/09/30 09:44:06;;;;;;;11.83;4.00;;;17.20;66.10;;;;;;6181563;28;20305;-79
2023/09/30 09:47:10;;;;;;;5.70;3.83;;;17.20;66.10;;;;;;6186324;28;20243;-81
2023/09/30 09:50:15;;;;;;;8.27;4.13;;;17.20;66.20;;;;;;6188279;28;20735;-78
2023/09/30 09:53:21;;;;;;;9.07;4.00;;;17.40;66.10;;;;;;6182122;28;20255;-80
2023/09/30 09:56:24;;;;;;;9.33;4.07;;;17.60;66.10;;;;;;6186052;28;20240;-80
2023/09/30 09:59:29;;;;;;;8.97;4.13;;;17.70;65.00;;;;;;6186448;28;20291;-81
2023/09/30 10:02:33;;;;;;;8.33;3.23;;;17.80;64.50;;;;;;6180054;28;20243;-80
2023/09/30 10:05:40;;;;;;;6.20;3.90;;;17.70;63.90;;;;;;6182252;28;20289;-82
2023/09/30 10:08:45;;;;;;;8.20;4.00;;;17.60;64.40;;;;;;6188401;28;20243;-80
2023/09/30 10:11:49;;;;;;;5.87;3.83;;;17.80;64.40;;;;;;6187693;28;20790;-80
2023/09/30 10:14:53;;;;;;;6.23;3.53;;;18.00;63.50;;;;;;6187785;28;20242;-78
2023/09/30 10:18:00;;;;;;;7.60;3.80;;;18.10;63.40;;;;;;6187351;28;20236;-80
2023/09/30 10:21:12;;;;;;;8.87;3.90;;;18.50;63.00;;;;;;6185922;28;20254;-80
2023/09/30 10:24:31;;;;;;;11.00;3.70;;;18.70;62.30;;;;;;6185345;28;20244;-81
2023/09/30 10:27:37;;;;;;;8.57;3.97;;;18.80;61.50;;;;;;6182153;28;20263;-81
2023/09/30 10:31:10;;;;;;;6.40;3.67;;;19.00;60.90;;;;;;6183547;28;20246;-78
2023/09/30 10:34:21;;;;;;;4.37;3.00;;;18.90;59.90;;;;;;6185996;28;20251;-78
2023/09/30 10:37:26;;;;;;;10.87;3.77;;;19.00;60.00;;;;;;6179900;28;20236;-80
2023/09/30 10:40:30;;;;;;;7.67;3.37;;;18.90;59.70;;;;;;6181537;28;20243;-82
2023/09/30 10:43:35;;;;;;;6.80;3.30;;;18.80;59.10;;;;;;6187150;28;20791;-80
2023/09/30 10:46:40;;;;;;;8.43;3.27;;;18.90;59.90;;;;;;6190478;28;20940;-81
2023/09/30 10:49:43;;;;;;;7.20;3.37;;;19.10;58.40;;;;;;6188383;28;20318;-82
2023/09/30 10:52:48;;;;;;;6.20;3.30;;;19.20;58.30;;;;;;6190149;28;20870;-81
2023/09/30 10:55:56;;;;;;;6.03;3.00;;;19.30;58.50;;;;;;6190165;28;20232;-83
2023/09/30 10:59:00;;;;;;;6.70;3.13;;;19.40;58.50;;;;;;6192425;28;20239;-81
2023/09/30 11:02:03;;;;;;;7.40;3.20;;;19.50;57.70;;;;;;6191425;28;20248;-80
2023/09/30 11:05:10;;;;;;;8.50;3.77;;;19.60;57.80;;;;;;6188058;28;20616;-82
2023/09/30 11:08:18;;;;;;;7.67;3.33;;;19.40;57.20;;;;;;6189408;28;20323;-81
2023/09/30 11:11:34;;;;;;;9.07;3.83;;;19.30;57.30;;;;;;6189232;28;20323;-80
2023/09/30 11:14:37;;;;;;;8.30;3.43;;;19.40;58.10;;;;;;6186357;28;20316;-82
2023/09/30 11:17:40;;;;;;;7.93;3.03;;;19.50;57.20;;;;;;6190151;28;20757;-80
2023/09/30 11:20:44;;;;;;;6.00;3.27;;;19.50;57.20;;;;;;6185482;28;20327;-80
2023/09/30 11:23:48;;;;;;;6.20;3.63;;;19.70;56.80;;;;;;6189433;28;20318;-81
2023/09/30 11:26:55;;;;;;;4.73;3.40;;;19.30;57.10;;;;;;6181609;28;20312;-82
2023/09/30 11:29:59;;;;;;;4.17;3.30;;;19.30;57.00;;;;;;6191767;28;20240;-80
2023/09/30 11:33:02;;;;;;;11.17;3.60;;;19.30;57.10;;;;;;6181861;28;20240;-80
2023/09/30 11:36:06;;;;;;;8.03;3.20;;;19.30;57.50;;;;;;6189488;28;20689;-79
2023/09/30 11:39:22;;;;;;;7.43;3.77;;;19.10;57.60;;;;;;6190153;28;20236;-82
2023/09/30 11:42:26;;;;;;;7.30;3.07;;;19.30;58.10;;;;;;6190556;28;20371;-78
2023/09/30 11:45:29;;;;;;;5.97;3.37;;;19.40;57.60;;;;;;6191534;28;20244;-80
2023/09/30 11:48:32;;;;;;;3.37;3.10;;;19.70;57.10;;;;;;6178482;28;20221;-79
2023/09/30 11:51:46;;;;;;;7.90;3.57;;;20.00;55.90;;;;;;6189860;28;20744;-80
2023/09/30 11:54:51;;;;;;;8.07;3.43;;;20.00;55.40;;;;;;6179780;28;20248;-83
2023/09/30 11:57:54;;;;;;;5.80;2.80;;;19.80;55.00;;;;;;6188263;28;20250;-81
2023/09/30 12:01:00;;;;;;;3.83;3.00;;;19.70;55.50;;;;;;6188590;28;20335;-81
2023/09/30 12:04:04;;;;;;;4.03;3.17;;;20.00;55.70;;;;;;6188825;28;20247;-81
2023/09/30 12:07:08;;;;;;;8.80;3.30;;;20.50;54.40;;;;;;6187034;28;20240;-82
2023/09/30 12:10:14;;;;;;;6.47;3.17;;;20.30;54.40;;;;;;6189773;28;20232;-85
2023/09/30 12:13:18;;;;;;;6.20;3.43;;;20.40;54.70;;;;;;6188708;28;20834;-82
2023/09/30 12:16:23;;;;;;;4.90;2.70;;;20.70;53.50;;;;;;6180863;28;20238;-81
2023/09/30 12:19:26;;;;;;;6.03;3.00;;;20.50;53.70;;;;;;6190443;28;20248;-83
2023/09/30 12:22:29;;;;;;;5.40;3.20;;;20.40;52.60;;;;;;6188334;28;20711;-82
2023/09/30 12:25:34;;;;;;;5.27;2.67;;;20.30;53.20;;;;;;6188798;28;20255;-83
2023/09/30 12:28:37;;;;;;;3.43;3.10;;;20.00;53.80;;;;;;6189771;28;20291;-84
2023/09/30 12:31:42;;;;;;;3.63;2.90;;;20.00;53.50;;;;;;6189431;28;20236;-80
2023/09/30 12:34:55;;;;;;;4.83;2.90;;;20.00;53.10;;;;;;6185394;28;20535;-83
2023/09/30 12:37:59;;;;;;;3.77;2.53;;;20.20;53.60;;;;;;6186661;28;20247;-82
2023/09/30 12:41:03;;;;;;;5.60;2.70;;;20.10;53.10;;;;;;6194112;28;20293;-83
2023/09/30 12:44:07;;;;;;;5.33;2.63;;;20.30;52.80;;;;;;6188867;28;20244;-79
2023/09/30 12:47:12;;;;;;;5.67;2.60;;;20.20;52.80;;;;;;6188201;28;20251;-80
2023/09/30 12:50:15;;;;;;;4.40;2.90;;;20.30;52.50;;;;;;6187998;28;20246;-80
2023/09/30 12:53:18;;;;;;;3.57;2.70;;;20.30;52.50;;;;;;6181856;28;20243;-79
2023/09/30 12:56:22;;;;;;;4.67;2.73;;;19.90;52.40;;;;;;6188088;28;20228;-82
2023/09/30 12:59:25;;;;;;;4.43;2.50;;;19.70;52.70;;;;;;6187506;28;20266;-81
2023/09/30 13:02:29;;;;;;;3.93;2.73;;;19.70;53.40;;;;;;6182247;28;20248;-85
2023/09/30 13:05:33;;;;;;;6.50;3.17;;;19.70;53.70;;;;;;6188994;28;20235;-84
2023/09/30 13:08:36;;;;;;;4.30;2.50;;;19.50;53.20;;;;;;6182154;28;20692;-83
2023/09/30 13:11:41;;;;;;;3.67;3.10;;;19.40;54.00;;;;;;6189119;28;20251;-83
2023/09/30 13:14:44;;;;;;;7.93;3.07;;;19.50;53.30;;;;;;6188721;28;20370;-85
2023/09/30 13:17:48;;;;;;;11.23;3.23;;;19.40;54.10;;;;;;6182956;28;20561;-79
2023/09/30 13:20:52;;;;;;;5.17;2.63;;;19.50;53.70;;;;;;6187470;28;20240;-80
2023/09/30 13:23:55;;;;;;;3.93;2.70;;;19.70;53.10;;;;;;6188270;28;20263;-80
2023/09/30 13:26:59;;;;;;;2.30;2.20;;;19.70;53.10;;;;;;6188136;28;20850;-78
2023/09/30 13:30:03;;;;;;;3.13;2.70;;;19.70;52.50;;;;;;6188124;28;20236;-78
2023/09/30 13:33:06;;;;;;;5.20;2.77;;;19.50;52.00;;;;;;6186166;28;20255;-79
2023/09/30 13:36:10;;;;;;;5.23;2.53;;;19.30;52.60;;;;;;6187774;28;20243;-77
2023/09/30 13:39:14;;;;;;;4.00;2.60;;;19.30;53.00;;;;;;6189010;28;20235;-81
2023/09/30 13:42:18;;;;;;;6.33;3.10;;;19.40;53.70;;;;;;6190117;28;20363;-80
2023/09/30 13:45:21;;;;;;;5.00;2.87;;;19.50;53.50;;;;;;6185149;28;20648;-82
2023/09/30 13:48:24;;;;;;;5.13;2.63;;;19.80;53.40;;;;;;6188534;28;20240;-81
2023/09/30 13:51:28;;;;;;;4.13;2.37;;;19.90;52.50;;;;;;6179650;28;20309;-81
2023/09/30 13:54:31;;;;;;;2.37;2.17;;;20.00;52.60;;;;;;6185403;28;20463;-81
2023/09/30 13:57:36;;;;;;;6.50;3.10;;;20.00;52.50;;;;;;6187036;28;20250;-82
2023/09/30 14:00:39;;;;;;;5.97;3.10;;;20.00;52.40;;;;;;6187689;28;20247;-80
2023/09/30 14:03:44;;;;;;;5.73;2.67;;;20.00;52.70;;;;;;6187858;28;20250;-81
2023/09/30 14:06:48;;;;;;;10.43;2.33;;;20.10;52.50;;;;;;6187565;28;20318;-77
2023/09/30 14:09:52;;;;;;;4.40;3.20;;;20.00;52.60;;;;;;6187359;28;20248;-78
2023/09/30 14:12:57;;;;;;;3.63;3.00;;;20.10;52.50;;;;;;6180740;28;20231;-79
2023/09/30 14:16:01;;;;;;;2.50;2.20;;;20.10;52.20;;;;;;6183797;28;20248;-80
2023/09/30 14:19:05;;;;;;;3.90;2.70;;;20.30;52.00;;;;;;6188846;28;20236;-79
2023/09/30 14:22:09;;;;;;;3.20;2.40;;;20.30;52.00;;;;;;6192347;28;20849;-78
2023/09/30 14:25:12;;;;;;;8.37;2.80;;;20.30;52.60;;;;;;6192025;28;20244;-79
2023/09/30 14:28:17;;;;;;;3.33;2.40;;;20.10;51.80;;;;;;6195168;28;20431;-82
2023/09/30 14:31:20;;;;;;;3.50;2.30;;;19.90;52.00;;;;;;6190523;28;20885;-81
2023/09/30 14:34:23;;;;;;;4.67;2.57;;;19.70;52.10;;;;;;6192155;28;20383;-81
2023/09/30 14:37:27;;;;;;;6.23;2.70;;;19.70;52.60;;;;;;6191774;28;20774;-79
2023/09/30 14:40:30;;;;;;;4.90;2.47;;;19.90;52.10;;;;;;6190155;28;20227;-80
2023/09/30 14:43:34;;;;;;;2.70;2.50;;;19.90;51.70;;;;;;6195624;28;20938;-81
2023/09/30 14:46:38;;;;;;;3.97;2.50;;;19.90;51.20;;;;;;6199629;28;20240;-79
2023/09/30 14:49:41;;;;;;;5.07;2.60;;;19.80;50.90;;;;;;6209297;28;20239;-79
2023/09/30 14:52:44;;;;;;;6.77;2.87;;;19.70;51.00;;;;;;6210413;28;20232;-79
2023/09/30 14:55:47;;;;;;;2.87;2.67;;;19.60;51.10;;;;;;6204774;28;20232;-80
2023/09/30 14:58:52;;;;;;;6.67;2.90;;;19.60;51.80;;;;;;6212235;28;20315;-81
2023/09/30 15:01:55;;;;;;;5.93;2.37;;;19.50;52.30;;;;;;6206849;28;20311;-79
2023/09/30 15:04:58;;;;;;;2.80;2.57;;;19.50;52.00;;;;;;6200513;28;20332;-80
2023/09/30 15:08:02;;;;;;;3.67;2.20;;;19.40;52.20;;;;;;6197332;28;20728;-79
2023/09/30 15:11:06;;;;;;;4.73;2.80;;;19.40;52.50;;;;;;6192558;28;20330;-81
2023/09/30 15:14:10;;;;;;;4.63;2.70;;;19.30;52.90;;;;;;6188626;28;20275;-81
2023/09/30 15:17:16;;;;;;;6.73;3.00;;;19.20;53.30;;;;;;6192902;28;20247;-81
2023/09/30 15:20:20;;;;;;;3.73;2.50;;;19.20;53.40;;;;;;6192890;28;20264;-81
2023/09/30 15:23:23;;;;;;;6.43;2.87;;;19.10;54.00;;;;;;6192158;28;20236;-79
2023/09/30 15:26:26;;;;;;;5.03;2.73;;;19.00;53.90;;;;;;6197242;28;20278;-80
2023/09/30 15:29:31;;;;;;;2.97;2.53;;;18.90;54.40;;;;;;6195222;28;20232;-81
2023/09/30 15:32:34;;;;;;;3.93;2.63;;;18.80;54.10;;;;;;6187323;28;20241;-82
2023/09/30 15:35:38;;;;;;;4.53;2.60;;;18.70;54.20;;;;;;6192449;28;20847;-81
2023/09/30 15:38:41;;;;;;;4.53;3.03;;;18.50;54.60;;;;;;6192772;28;20240;-79
2023/09/30 15:41:44;;;;;;;4.13;2.77;;;18.40;55.00;;;;;;6185192;28;20323;-80
2023/09/30 15:44:48;;;;;;;6.10;3.20;;;18.40;55.20;;;;;;6186133;28;20232;-80
2023/09/30 15:47:53;;;;;;;3.33;3.03;;;18.40;55.20;;;;;;6205230;28;20232;-83
2023/09/30 15:50:57;;;;;;;2.70;2.50;;;18.30;54.90;;;;;;6191431;28;20263;-79
2023/09/30 15:54:00;;;;;;;4.87;2.70;;;18.30;55.40;;;;;;6187926;28;20783;-82